Topping, Virginia
Current Conditions -  °F | °C
As of 10:35 PM on Monday 26 Jan 2015 (Local Time) from KW75 Reporting Station
Overcast Overcast  
Wind Chill: 21°   Ceiling: 800
Heat Index: 32°   Visibility: 10mi
Dew Point: 30°   Wind: 17mph
Humidity: 92%   Direction: 350°N
Pressure: 29.67"   Gusts: 22mph
Location:  37.59°N, 76.47°W
Report Text: KW75 270335Z AUTO 35015G19KT 10SM OVC008 00/M01 A2967 RMK AO1 T00021010
Loading
Personal Weather Stations






























Interactive Weather Map New forecast layout! Learn more

10-Day Weather Forecast

Advertisements
Track Severe Weather on mobile